sensor_id;sensor_type;location;lat;lon;timestamp;temperature;humidity
24730;DHT22;12832;52.392;13.066;2022-10-14T00:01:37;27.40;36.00
24730;DHT22;12832;52.392;13.066;2022-10-14T00:04:04;27.40;35.90
24730;DHT22;12832;52.392;13.066;2022-10-14T00:06:32;27.40;35.90
24730;DHT22;12832;52.392;13.066;2022-10-14T00:09:00;27.40;36.00
24730;DHT22;12832;52.392;13.066;2022-10-14T00:11:29;27.40;36.00
24730;DHT22;12832;52.392;13.066;2022-10-14T00:13:59;27.40;35.90
24730;DHT22;12832;52.392;13.066;2022-10-14T00:16:31;27.40;35.90
24730;DHT22;12832;52.392;13.066;2022-10-14T00:18:58;27.40;35.90
24730;DHT22;12832;52.392;13.066;2022-10-14T00:21:25;27.40;36.00
24730;DHT22;12832;52.392;13.066;2022-10-14T00:23:52;27.40;36.00
24730;DHT22;12832;52.392;13.066;2022-10-14T00:26:22;27.40;36.00
24730;DHT22;12832;52.392;13.066;2022-10-14T00:28:49;27.40;36.00
24730;DHT22;12832;52.392;13.066;2022-10-14T00:31:17;27.40;36.00
24730;DHT22;12832;52.392;13.066;2022-10-14T00:33:43;27.40;36.00
24730;DHT22;12832;52.392;13.066;2022-10-14T00:36:12;27.30;36.00
24730;DHT22;12832;52.392;13.066;2022-10-14T00:38:39;27.40;36.00
24730;DHT22;12832;52.392;13.066;2022-10-14T00:41:06;27.40;36.70
24730;DHT22;12832;52.392;13.066;2022-10-14T00:43:59;27.40;35.90
24730;DHT22;12832;52.392;13.066;2022-10-14T00:46:29;27.40;35.90
24730;DHT22;12832;52.392;13.066;2022-10-14T00:48:57;27.40;36.00
24730;DHT22;12832;52.392;13.066;2022-10-14T00:51:24;27.40;36.00
24730;DHT22;12832;52.392;13.066;2022-10-14T00:53:51;27.40;36.00
24730;DHT22;12832;52.392;13.066;2022-10-14T00:56:22;27.40;36.00
24730;DHT22;12832;52.392;13.066;2022-10-14T00:58:50;27.40;36.00
24730;DHT22;12832;52.392;13.066;2022-10-14T01:01:16;27.40;36.00
24730;DHT22;12832;52.392;13.066;2022-10-14T01:03:43;27.40;36.00
24730;DHT22;12832;52.392;13.066;2022-10-14T01:06:16;27.40;36.00
24730;DHT22;12832;52.392;13.066;2022-10-14T01:14:30;27.40;35.90
24730;DHT22;12832;52.392;13.066;2022-10-14T01:17:12;27.40;36.00
24730;DHT22;12832;52.392;13.066;2022-10-14T01:20:05;27.40;36.00
24730;DHT22;12832;52.392;13.066;2022-10-14T01:22:51;27.40;36.00
24730;DHT22;12832;52.392;13.066;2022-10-14T01:25:34;27.40;36.00
24730;DHT22;12832;52.392;13.066;2022-10-14T01:31:03;27.40;36.00
24730;DHT22;12832;52.392;13.066;2022-10-14T01:33:41;27.40;36.00
24730;DHT22;12832;52.392;13.066;2022-10-14T01:36:19;27.40;36.00
24730;DHT22;12832;52.392;13.066;2022-10-14T01:38:50;27.40;36.00
24730;DHT22;12832;52.392;13.066;2022-10-14T01:41:27;27.40;36.00
24730;DHT22;12832;52.392;13.066;2022-10-14T01:43:59;27.40;36.00
24730;DHT22;12832;52.392;13.066;2022-10-14T01:46:26;27.40;36.00
24730;DHT22;12832;52.392;13.066;2022-10-14T01:49:02;27.40;36.00
24730;DHT22;12832;52.392;13.066;2022-10-14T01:51:34;27.40;36.00
24730;DHT22;12832;52.392;13.066;2022-10-14T01:54:11;27.40;36.00
24730;DHT22;12832;52.392;13.066;2022-10-14T01:56:42;27.40;36.00
24730;DHT22;12832;52.392;13.066;2022-10-14T01:59:10;27.40;36.00
24730;DHT22;12832;52.392;13.066;2022-10-14T02:01:37;27.30;35.90
24730;DHT22;12832;52.392;13.066;2022-10-14T02:04:18;27.40;36.00
24730;DHT22;12832;52.392;13.066;2022-10-14T02:07:24;27.40;35.90
24730;DHT22;12832;52.392;13.066;2022-10-14T02:18:11;27.40;36.00
24730;DHT22;12832;52.392;13.066;2022-10-14T02:21:05;27.40;36.00
24730;DHT22;12832;52.392;13.066;2022-10-14T02:23:40;27.40;36.00
24730;DHT22;12832;52.392;13.066;2022-10-14T02:26:09;27.40;36.00
24730;DHT22;12832;52.392;13.066;2022-10-14T02:28:37;27.40;36.00
24730;DHT22;12832;52.392;13.066;2022-10-14T02:31:07;27.40;36.30
24730;DHT22;12832;52.392;13.066;2022-10-14T02:33:44;27.40;36.00
24730;DHT22;12832;52.392;13.066;2022-10-14T02:36:14;27.40;36.00
24730;DHT22;12832;52.392;13.066;2022-10-14T02:38:42;27.40;36.00
24730;DHT22;12832;52.392;13.066;2022-10-14T02:41:13;27.40;35.90
24730;DHT22;12832;52.392;13.066;2022-10-14T02:43:41;27.40;36.00
24730;DHT22;12832;52.392;13.066;2022-10-14T02:46:07;27.40;36.00
24730;DHT22;12832;52.392;13.066;2022-10-14T02:48:33;27.40;36.00
24730;DHT22;12832;52.392;13.066;2022-10-14T02:51:00;27.40;36.00
24730;DHT22;12832;52.392;13.066;2022-10-14T02:53:26;27.40;35.90
24730;DHT22;12832;52.392;13.066;2022-10-14T02:55:52;27.40;35.90
24730;DHT22;12832;52.392;13.066;2022-10-14T02:58:18;27.40;36.00
24730;DHT22;12832;52.392;13.066;2022-10-14T03:00:47;27.40;35.90
24730;DHT22;12832;52.392;13.066;2022-10-14T03:03:14;27.40;35.90
24730;DHT22;12832;52.392;13.066;2022-10-14T03:05:41;27.40;36.00
24730;DHT22;12832;52.392;13.066;2022-10-14T03:08:08;27.40;35.90
24730;DHT22;12832;52.392;13.066;2022-10-14T03:10:34;27.40;35.90
24730;DHT22;12832;52.392;13.066;2022-10-14T03:13:00;27.40;35.90
24730;DHT22;12832;52.392;13.066;2022-10-14T03:15:26;27.40;35.90
24730;DHT22;12832;52.392;13.066;2022-10-14T03:17:52;27.40;35.90
24730;DHT22;12832;52.392;13.066;2022-10-14T03:20:18;27.40;35.90
24730;DHT22;12832;52.392;13.066;2022-10-14T03:22:45;27.40;35.90
24730;DHT22;12832;52.392;13.066;2022-10-14T03:25:11;27.40;35.90
24730;DHT22;12832;52.392;13.066;2022-10-14T03:27:37;27.40;35.90
24730;DHT22;12832;52.392;13.066;2022-10-14T03:30:04;27.40;35.90
24730;DHT22;12832;52.392;13.066;2022-10-14T03:32:30;27.40;36.00
24730;DHT22;12832;52.392;13.066;2022-10-14T03:34:56;27.40;35.90
24730;DHT22;12832;52.392;13.066;2022-10-14T03:37:23;27.40;35.90
24730;DHT22;12832;52.392;13.066;2022-10-14T03:39:49;27.40;35.90
24730;DHT22;12832;52.392;13.066;2022-10-14T03:42:15;27.40;35.90
24730;DHT22;12832;52.392;13.066;2022-10-14T03:44:42;27.40;35.90
24730;DHT22;12832;52.392;13.066;2022-10-14T03:47:09;27.40;35.90
24730;DHT22;12832;52.392;13.066;2022-10-14T03:49:35;27.40;36.00
24730;DHT22;12832;52.392;13.066;2022-10-14T03:52:02;27.40;35.90
24730;DHT22;12832;52.392;13.066;2022-10-14T03:54:28;27.40;35.90
24730;DHT22;12832;52.392;13.066;2022-10-14T03:56:54;27.40;36.00
24730;DHT22;12832;52.392;13.066;2022-10-14T03:59:20;27.40;35.90
24730;DHT22;12832;52.392;13.066;2022-10-14T04:01:47;27.40;35.90
24730;DHT22;12832;52.392;13.066;2022-10-14T04:04:13;27.40;35.90
24730;DHT22;12832;52.392;13.066;2022-10-14T04:06:40;27.40;35.90
24730;DHT22;12832;52.392;13.066;2022-10-14T04:09:06;27.40;35.90
24730;DHT22;12832;52.392;13.066;2022-10-14T04:11:32;27.40;35.90
24730;DHT22;12832;52.392;13.066;2022-10-14T04:13:59;27.40;35.90
24730;DHT22;12832;52.392;13.066;2022-10-14T04:16:26;27.40;36.00
24730;DHT22;12832;52.392;13.066;2022-10-14T04:18:53;27.40;36.00
24730;DHT22;12832;52.392;13.066;2022-10-14T04:21:19;27.40;36.70
24730;DHT22;12832;52.392;13.066;2022-10-14T04:23:45;27.40;36.00
24730;DHT22;12832;52.392;13.066;2022-10-14T04:26:11;27.40;36.00
24730;DHT22;12832;52.392;13.066;2022-10-14T04:28:38;27.40;36.00
24730;DHT22;12832;52.392;13.066;2022-10-14T04:31:04;27.40;36.00
24730;DHT22;12832;52.392;13.066;2022-10-14T04:33:31;27.40;36.00
24730;DHT22;12832;52.392;13.066;2022-10-14T04:35:59;27.40;35.90
24730;DHT22;12832;52.392;13.066;2022-10-14T04:38:27;27.40;35.90
24730;DHT22;12832;52.392;13.066;2022-10-14T04:40:53;27.40;36.00
24730;DHT22;12832;52.392;13.066;2022-10-14T04:43:20;27.40;36.00
24730;DHT22;12832;52.392;13.066;2022-10-14T04:45:47;27.40;36.00
24730;DHT22;12832;52.392;13.066;2022-10-14T04:48:14;27.40;35.90
24730;DHT22;12832;52.392;13.066;2022-10-14T04:50:40;27.40;36.00
24730;DHT22;12832;52.392;13.066;2022-10-14T04:53:07;27.40;36.00
24730;DHT22;12832;52.392;13.066;2022-10-14T04:55:39;27.40;35.90
24730;DHT22;12832;52.392;13.066;2022-10-14T04:58:05;27.40;36.00
24730;DHT22;12832;52.392;13.066;2022-10-14T05:00:32;27.40;35.90
24730;DHT22;12832;52.392;13.066;2022-10-14T05:02:58;27.40;36.00
24730;DHT22;12832;52.392;13.066;2022-10-14T05:05:24;27.40;36.20
24730;DHT22;12832;52.392;13.066;2022-10-14T05:07:50;27.40;36.20
24730;DHT22;12832;52.392;13.066;2022-10-14T05:10:17;27.40;36.20
24730;DHT22;12832;52.392;13.066;2022-10-14T05:12:43;27.30;36.10
24730;DHT22;12832;52.392;13.066;2022-10-14T05:15:09;27.30;36.10
24730;DHT22;12832;52.392;13.066;2022-10-14T05:17:36;27.30;36.00
24730;DHT22;12832;52.392;13.066;2022-10-14T05:20:05;27.20;36.00
24730;DHT22;12832;52.392;13.066;2022-10-14T05:22:31;27.20;36.00
24730;DHT22;12832;52.392;13.066;2022-10-14T05:24:57;27.20;36.70
24730;DHT22;12832;52.392;13.066;2022-10-14T05:27:24;27.10;36.00
24730;DHT22;12832;52.392;13.066;2022-10-14T05:29:50;27.10;36.10
24730;DHT22;12832;52.392;13.066;2022-10-14T05:32:16;27.10;36.20
24730;DHT22;12832;52.392;13.066;2022-10-14T05:34:42;27.10;36.10
24730;DHT22;12832;52.392;13.066;2022-10-14T05:37:08;27.10;36.10
24730;DHT22;12832;52.392;13.066;2022-10-14T05:39:35;27.10;36.10
24730;DHT22;12832;52.392;13.066;2022-10-14T05:42:02;27.10;36.20
24730;DHT22;12832;52.392;13.066;2022-10-14T05:44:28;27.10;36.20
24730;DHT22;12832;52.392;13.066;2022-10-14T05:46:54;27.10;36.30
24730;DHT22;12832;52.392;13.066;2022-10-14T05:49:20;27.00;36.20
24730;DHT22;12832;52.392;13.066;2022-10-14T05:51:47;27.00;36.30
24730;DHT22;12832;52.392;13.066;2022-10-14T05:54:15;27.00;36.30
24730;DHT22;12832;52.392;13.066;2022-10-14T05:56:41;27.00;36.30
24730;DHT22;12832;52.392;13.066;2022-10-14T05:59:09;27.00;36.30
24730;DHT22;12832;52.392;13.066;2022-10-14T06:01:35;27.00;36.30
24730;DHT22;12832;52.392;13.066;2022-10-14T06:04:03;27.00;36.30
24730;DHT22;12832;52.392;13.066;2022-10-14T06:06:30;27.00;36.40
24730;DHT22;12832;52.392;13.066;2022-10-14T06:08:56;26.90;36.30
24730;DHT22;12832;52.392;13.066;2022-10-14T06:11:23;27.00;36.40
24730;DHT22;12832;52.392;13.066;2022-10-14T06:13:49;26.90;36.40
24730;DHT22;12832;52.392;13.066;2022-10-14T06:16:15;26.90;36.40
24730;DHT22;12832;52.392;13.066;2022-10-14T06:18:42;26.90;36.40
24730;DHT22;12832;52.392;13.066;2022-10-14T06:21:08;26.90;37.00
24730;DHT22;12832;52.392;13.066;2022-10-14T06:23:37;26.90;36.30
24730;DHT22;12832;52.392;13.066;2022-10-14T06:26:04;26.90;36.30
24730;DHT22;12832;52.392;13.066;2022-10-14T06:28:31;26.90;36.30
24730;DHT22;12832;52.392;13.066;2022-10-14T06:30:58;26.90;36.30
24730;DHT22;12832;52.392;13.066;2022-10-14T06:33:24;26.90;36.30
24730;DHT22;12832;52.392;13.066;2022-10-14T06:35:52;26.90;36.30
24730;DHT22;12832;52.392;13.066;2022-10-14T06:38:18;26.80;36.20
24730;DHT22;12832;52.392;13.066;2022-10-14T06:40:44;26.80;36.10
24730;DHT22;12832;52.392;13.066;2022-10-14T06:43:11;26.80;36.20
24730;DHT22;12832;52.392;13.066;2022-10-14T06:45:37;26.80;36.20
24730;DHT22;12832;52.392;13.066;2022-10-14T06:48:03;26.80;36.20
24730;DHT22;12832;52.392;13.066;2022-10-14T06:50:30;26.80;36.20
24730;DHT22;12832;52.392;13.066;2022-10-14T06:52:56;26.80;36.20
24730;DHT22;12832;52.392;13.066;2022-10-14T06:55:22;26.80;36.30
24730;DHT22;12832;52.392;13.066;2022-10-14T06:57:48;26.80;36.20
24730;DHT22;12832;52.392;13.066;2022-10-14T07:00:15;26.80;36.20
24730;DHT22;12832;52.392;13.066;2022-10-14T07:02:42;26.80;36.30
24730;DHT22;12832;52.392;13.066;2022-10-14T07:05:09;26.80;36.30
24730;DHT22;12832;52.392;13.066;2022-10-14T07:07:35;26.80;36.30
24730;DHT22;12832;52.392;13.066;2022-10-14T07:10:02;26.80;36.20
24730;DHT22;12832;52.392;13.066;2022-10-14T07:12:28;26.70;36.30
24730;DHT22;12832;52.392;13.066;2022-10-14T07:14:55;26.70;36.20
24730;DHT22;12832;52.392;13.066;2022-10-14T07:17:22;26.70;36.20
24730;DHT22;12832;52.392;13.066;2022-10-14T07:19:50;26.70;36.30
24730;DHT22;12832;52.392;13.066;2022-10-14T07:22:16;26.70;36.90
24730;DHT22;12832;52.392;13.066;2022-10-14T07:24:43;26.70;36.30
24730;DHT22;12832;52.392;13.066;2022-10-14T07:27:10;26.70;36.30
24730;DHT22;12832;52.392;13.066;2022-10-14T07:29:36;26.70;36.30
24730;DHT22;12832;52.392;13.066;2022-10-14T07:32:03;26.70;36.40
24730;DHT22;12832;52.392;13.066;2022-10-14T07:34:30;26.70;36.40
24730;DHT22;12832;52.392;13.066;2022-10-14T07:36:56;26.70;36.40
24730;DHT22;12832;52.392;13.066;2022-10-14T07:39:22;26.70;36.40
24730;DHT22;12832;52.392;13.066;2022-10-14T07:41:50;26.60;36.50
24730;DHT22;12832;52.392;13.066;2022-10-14T07:44:16;26.60;36.50
24730;DHT22;12832;52.392;13.066;2022-10-14T07:46:44;26.60;36.50
24730;DHT22;12832;52.392;13.066;2022-10-14T07:49:16;26.60;36.50
24730;DHT22;12832;52.392;13.066;2022-10-14T07:51:43;26.60;36.60
24730;DHT22;12832;52.392;13.066;2022-10-14T07:54:19;26.60;36.70
24730;DHT22;12832;52.392;13.066;2022-10-14T07:56:46;26.60;36.80
24730;DHT22;12832;52.392;13.066;2022-10-14T07:59:19;26.60;36.90
24730;DHT22;12832;52.392;13.066;2022-10-14T08:01:47;26.60;36.90
24730;DHT22;12832;52.392;13.066;2022-10-14T08:04:14;26.60;37.00
24730;DHT22;12832;52.392;13.066;2022-10-14T08:06:41;26.60;37.00
24730;DHT22;12832;52.392;13.066;2022-10-14T08:09:09;26.60;37.00
24730;DHT22;12832;52.392;13.066;2022-10-14T08:11:36;26.60;37.10
24730;DHT22;12832;52.392;13.066;2022-10-14T08:14:03;26.60;37.20
24730;DHT22;12832;52.392;13.066;2022-10-14T08:16:32;26.60;37.20
24730;DHT22;12832;52.392;13.066;2022-10-14T08:19:02;26.60;37.30
24730;DHT22;12832;52.392;13.066;2022-10-14T08:21:29;26.60;37.30
24730;DHT22;12832;52.392;13.066;2022-10-14T08:23:56;26.60;37.40
24730;DHT22;12832;52.392;13.066;2022-10-14T08:26:35;26.50;37.30
24730;DHT22;12832;52.392;13.066;2022-10-14T08:29:05;26.60;37.40
24730;DHT22;12832;52.392;13.066;2022-10-14T08:31:32;26.60;37.50
24730;DHT22;12832;52.392;13.066;2022-10-14T08:33:58;26.60;37.60
24730;DHT22;12832;52.392;13.066;2022-10-14T08:36:26;26.50;37.60
24730;DHT22;12832;52.392;13.066;2022-10-14T08:38:53;26.50;37.70
24730;DHT22;12832;52.392;13.066;2022-10-14T08:41:25;26.60;37.80
24730;DHT22;12832;52.392;13.066;2022-10-14T08:44:23;26.50;37.80
24730;DHT22;12832;52.392;13.066;2022-10-14T08:46:59;26.50;37.80
24730;DHT22;12832;52.392;13.066;2022-10-14T08:49:56;26.50;38.00
24730;DHT22;12832;52.392;13.066;2022-10-14T08:57:49;26.50;38.20
24730;DHT22;12832;52.392;13.066;2022-10-14T09:00:20;26.50;38.20
24730;DHT22;12832;52.392;13.066;2022-10-14T09:02:49;26.50;38.20
24730;DHT22;12832;52.392;13.066;2022-10-14T09:05:21;26.50;38.30
24730;DHT22;12832;52.392;13.066;2022-10-14T09:07:49;26.50;38.30
24730;DHT22;12832;52.392;13.066;2022-10-14T09:10:35;26.50;38.30
24730;DHT22;12832;52.392;13.066;2022-10-14T09:13:15;26.50;38.40
24730;DHT22;12832;52.392;13.066;2022-10-14T09:15:45;26.50;38.50
24730;DHT22;12832;52.392;13.066;2022-10-14T09:18:22;26.50;38.50
24730;DHT22;12832;52.392;13.066;2022-10-14T09:20:49;26.50;38.60
24730;DHT22;12832;52.392;13.066;2022-10-14T09:23:22;26.60;38.70
24730;DHT22;12832;52.392;13.066;2022-10-14T09:28:24;26.50;38.60
24730;DHT22;12832;52.392;13.066;2022-10-14T09:30:52;26.50;38.70
24730;DHT22;12832;52.392;13.066;2022-10-14T09:33:25;26.50;38.70
24730;DHT22;12832;52.392;13.066;2022-10-14T09:35:52;26.50;38.70
24730;DHT22;12832;52.392;13.066;2022-10-14T09:38:20;26.50;38.70
24730;DHT22;12832;52.392;13.066;2022-10-14T09:40:49;26.40;38.70
24730;DHT22;12832;52.392;13.066;2022-10-14T09:43:19;26.40;38.70
24730;DHT22;12832;52.392;13.066;2022-10-14T09:49:03;26.50;38.90
24730;DHT22;12832;52.392;13.066;2022-10-14T09:51:31;26.40;38.80
24730;DHT22;12832;52.392;13.066;2022-10-14T09:54:01;26.50;39.00
24730;DHT22;12832;52.392;13.066;2022-10-14T09:56:36;26.40;39.00
24730;DHT22;12832;52.392;13.066;2022-10-14T09:59:20;26.40;39.00
24730;DHT22;12832;52.392;13.066;2022-10-14T10:01:53;26.40;39.00
24730;DHT22;12832;52.392;13.066;2022-10-14T10:04:33;26.40;39.30
24730;DHT22;12832;52.392;13.066;2022-10-14T10:07:06;26.40;39.20
24730;DHT22;12832;52.392;13.066;2022-10-14T10:09:33;26.40;39.30
24730;DHT22;12832;52.392;13.066;2022-10-14T10:11:59;26.40;39.30
24730;DHT22;12832;52.392;13.066;2022-10-14T10:14:26;26.40;39.50
24730;DHT22;12832;52.392;13.066;2022-10-14T10:19:37;26.40;39.50
24730;DHT22;12832;52.392;13.066;2022-10-14T10:22:27;26.40;39.50
24730;DHT22;12832;52.392;13.066;2022-10-14T10:27:35;26.40;39.60
24730;DHT22;12832;52.392;13.066;2022-10-14T10:33:12;26.40;39.70
24730;DHT22;12832;52.392;13.066;2022-10-14T10:38:57;26.40;40.60
24730;DHT22;12832;52.392;13.066;2022-10-14T10:44:23;26.40;40.00
24730;DHT22;12832;52.392;13.066;2022-10-14T10:55:37;26.40;40.10
24730;DHT22;12832;52.392;13.066;2022-10-14T10:58:40;26.40;40.10
24730;DHT22;12832;52.392;13.066;2022-10-14T11:01:31;26.40;40.10
24730;DHT22;12832;52.392;13.066;2022-10-14T11:04:27;26.40;40.10
24730;DHT22;12832;52.392;13.066;2022-10-14T11:07:27;26.40;40.10
24730;DHT22;12832;52.392;13.066;2022-10-14T11:10:42;26.40;40.20
24730;DHT22;12832;52.392;13.066;2022-10-14T11:16:53;26.40;40.20
24730;DHT22;12832;52.392;13.066;2022-10-14T11:19:59;26.40;40.20
24730;DHT22;12832;52.392;13.066;2022-10-14T11:22:43;26.40;40.20
24730;DHT22;12832;52.392;13.066;2022-10-14T11:25:37;26.40;40.30
24730;DHT22;12832;52.392;13.066;2022-10-14T11:28:13;26.40;40.30
24730;DHT22;12832;52.392;13.066;2022-10-14T11:30:58;26.40;40.30
24730;DHT22;12832;52.392;13.066;2022-10-14T11:39:57;26.40;40.40
24730;DHT22;12832;52.392;13.066;2022-10-14T11:42:36;26.40;40.30
24730;DHT22;12832;52.392;13.066;2022-10-14T11:50:46;26.30;40.30
24730;DHT22;12832;52.392;13.066;2022-10-14T11:53:37;26.30;40.40
24730;DHT22;12832;52.392;13.066;2022-10-14T11:56:41;26.40;40.50
24730;DHT22;12832;52.392;13.066;2022-10-14T12:01:57;26.40;40.60
24730;DHT22;12832;52.392;13.066;2022-10-14T12:04:36;26.40;40.50
24730;DHT22;12832;52.392;13.066;2022-10-14T12:07:20;26.30;40.50
24730;DHT22;12832;52.392;13.066;2022-10-14T12:10:00;26.40;40.60
24730;DHT22;12832;52.392;13.066;2022-10-14T12:12:29;26.40;40.60
24730;DHT22;12832;52.392;13.066;2022-10-14T12:15:00;26.30;40.60
24730;DHT22;12832;52.392;13.066;2022-10-14T12:17:46;26.30;40.60
24730;DHT22;12832;52.392;13.066;2022-10-14T12:20:37;26.30;40.60
24730;DHT22;12832;52.392;13.066;2022-10-14T12:23:07;26.40;40.70
24730;DHT22;12832;52.392;13.066;2022-10-14T12:25:56;26.30;40.70
24730;DHT22;12832;52.392;13.066;2022-10-14T12:28:26;26.40;40.70
24730;DHT22;12832;52.392;13.066;2022-10-14T12:31:20;26.30;40.70
24730;DHT22;12832;52.392;13.066;2022-10-14T12:36:40;26.30;40.70
24730;DHT22;12832;52.392;13.066;2022-10-14T12:41:59;26.40;40.80
24730;DHT22;12832;52.392;13.066;2022-10-14T12:44:58;26.30;40.80
24730;DHT22;12832;52.392;13.066;2022-10-14T12:47:31;26.30;40.70
24730;DHT22;12832;52.392;13.066;2022-10-14T12:50:02;26.40;40.70
24730;DHT22;12832;52.392;13.066;2022-10-14T12:52:31;26.40;40.70
24730;DHT22;12832;52.392;13.066;2022-10-14T12:55:07;26.40;40.70
24730;DHT22;12832;52.392;13.066;2022-10-14T12:57:35;26.30;40.80
24730;DHT22;12832;52.392;13.066;2022-10-14T13:00:33;26.30;40.80
24730;DHT22;12832;52.392;13.066;2022-10-14T13:03:03;26.30;40.80
24730;DHT22;12832;52.392;13.066;2022-10-14T13:05:36;26.30;40.80
24730;DHT22;12832;52.392;13.066;2022-10-14T13:11:07;26.30;40.80
24730;DHT22;12832;52.392;13.066;2022-10-14T13:16:04;26.30;40.90
24730;DHT22;12832;52.392;13.066;2022-10-14T13:18:34;26.30;40.90
24730;DHT22;12832;52.392;13.066;2022-10-14T13:21:02;26.30;40.90
24730;DHT22;12832;52.392;13.066;2022-10-14T13:26:24;26.30;40.90
24730;DHT22;12832;52.392;13.066;2022-10-14T13:34:46;26.30;40.90
24730;DHT22;12832;52.392;13.066;2022-10-14T13:37:33;26.30;40.90
24730;DHT22;12832;52.392;13.066;2022-10-14T13:42:49;26.20;40.90
24730;DHT22;12832;52.392;13.066;2022-10-14T13:45:16;26.30;41.10
24730;DHT22;12832;52.392;13.066;2022-10-14T13:47:46;26.30;41.20
24730;DHT22;12832;52.392;13.066;2022-10-14T13:50:17;26.20;41.10
24730;DHT22;12832;52.392;13.066;2022-10-14T13:52:55;26.30;41.10
24730;DHT22;12832;52.392;13.066;2022-10-14T13:55:24;26.30;41.10
24730;DHT22;12832;52.392;13.066;2022-10-14T14:00:44;26.30;41.10
24730;DHT22;12832;52.392;13.066;2022-10-14T14:03:37;26.30;41.10
24730;DHT22;12832;52.392;13.066;2022-10-14T14:06:10;26.30;41.20
24730;DHT22;12832;52.392;13.066;2022-10-14T14:08:59;26.20;41.10
24730;DHT22;12832;52.392;13.066;2022-10-14T14:11:30;26.30;41.20
24730;DHT22;12832;52.392;13.066;2022-10-14T14:18:55;26.20;41.20
24730;DHT22;12832;52.392;13.066;2022-10-14T14:21:34;26.20;41.20
24730;DHT22;12832;52.392;13.066;2022-10-14T14:24:01;26.20;41.20
24730;DHT22;12832;52.392;13.066;2022-10-14T14:26:35;26.20;41.20
24730;DHT22;12832;52.392;13.066;2022-10-14T14:29:05;26.30;41.30
24730;DHT22;12832;52.392;13.066;2022-10-14T14:31:32;26.20;41.30
24730;DHT22;12832;52.392;13.066;2022-10-14T14:34:21;26.20;41.40
24730;DHT22;12832;52.392;13.066;2022-10-14T14:36:48;26.30;41.40
24730;DHT22;12832;52.392;13.066;2022-10-14T14:39:26;26.20;41.40
24730;DHT22;12832;52.392;13.066;2022-10-14T14:41:55;26.20;41.40
24730;DHT22;12832;52.392;13.066;2022-10-14T14:44:26;26.20;41.40
24730;DHT22;12832;52.392;13.066;2022-10-14T14:46:59;26.20;41.40
24730;DHT22;12832;52.392;13.066;2022-10-14T14:49:31;26.20;41.50
24730;DHT22;12832;52.392;13.066;2022-10-14T14:51:59;26.20;41.50
24730;DHT22;12832;52.392;13.066;2022-10-14T14:54:25;26.20;41.50
24730;DHT22;12832;52.392;13.066;2022-10-14T14:59:38;26.20;41.50
24730;DHT22;12832;52.392;13.066;2022-10-14T15:02:17;26.20;41.60
24730;DHT22;12832;52.392;13.066;2022-10-14T15:04:43;26.20;41.60
24730;DHT22;12832;52.392;13.066;2022-10-14T15:07:16;26.20;41.60
24730;DHT22;12832;52.392;13.066;2022-10-14T15:09:50;26.20;41.70
24730;DHT22;12832;52.392;13.066;2022-10-14T15:12:21;26.20;41.60
24730;DHT22;12832;52.392;13.066;2022-10-14T15:14:56;26.20;41.70
24730;DHT22;12832;52.392;13.066;2022-10-14T15:17:40;26.20;41.70
24730;DHT22;12832;52.392;13.066;2022-10-14T15:22:39;26.20;41.70
24730;DHT22;12832;52.392;13.066;2022-10-14T15:27:57;26.20;41.70
24730;DHT22;12832;52.392;13.066;2022-10-14T15:33:15;26.20;41.80
24730;DHT22;12832;52.392;13.066;2022-10-14T15:35:43;26.20;41.80
24730;DHT22;12832;52.392;13.066;2022-10-14T15:38:12;26.20;41.80
24730;DHT22;12832;52.392;13.066;2022-10-14T15:40:43;26.20;41.80
24730;DHT22;12832;52.392;13.066;2022-10-14T15:43:15;26.20;41.80
24730;DHT22;12832;52.392;13.066;2022-10-14T15:45:46;26.20;41.80
24730;DHT22;12832;52.392;13.066;2022-10-14T15:48:32;26.20;41.80
24730;DHT22;12832;52.392;13.066;2022-10-14T15:50:59;26.20;41.90
24730;DHT22;12832;52.392;13.066;2022-10-14T15:53:25;26.20;41.80
24730;DHT22;12832;52.392;13.066;2022-10-14T15:55:52;26.20;41.90
24730;DHT22;12832;52.392;13.066;2022-10-14T15:58:18;26.20;41.80
24730;DHT22;12832;52.392;13.066;2022-10-14T16:00:44;26.20;41.90
24730;DHT22;12832;52.392;13.066;2022-10-14T16:03:13;26.20;41.90
24730;DHT22;12832;52.392;13.066;2022-10-14T16:05:42;26.20;41.90
24730;DHT22;12832;52.392;13.066;2022-10-14T16:08:12;26.20;41.90
24730;DHT22;12832;52.392;13.066;2022-10-14T16:10:42;26.20;41.90
24730;DHT22;12832;52.392;13.066;2022-10-14T16:13:13;26.20;41.90
24730;DHT22;12832;52.392;13.066;2022-10-14T16:15:48;26.20;41.90
24730;DHT22;12832;52.392;13.066;2022-10-14T16:18:16;26.20;41.80
24730;DHT22;12832;52.392;13.066;2022-10-14T16:20:44;26.20;41.80
24730;DHT22;12832;52.392;13.066;2022-10-14T16:23:17;26.20;41.90
24730;DHT22;12832;52.392;13.066;2022-10-14T16:25:45;26.20;41.90
24730;DHT22;12832;52.392;13.066;2022-10-14T16:28:12;26.20;41.90
24730;DHT22;12832;52.392;13.066;2022-10-14T16:30:43;26.20;41.90
24730;DHT22;12832;52.392;13.066;2022-10-14T16:33:15;26.20;42.00
24730;DHT22;12832;52.392;13.066;2022-10-14T16:35:42;26.20;42.00
24730;DHT22;12832;52.392;13.066;2022-10-14T16:38:10;26.20;42.00
24730;DHT22;12832;52.392;13.066;2022-10-14T16:40:37;26.20;42.10
24730;DHT22;12832;52.392;13.066;2022-10-14T16:43:05;26.20;42.00
24730;DHT22;12832;52.392;13.066;2022-10-14T16:45:32;26.20;42.10
24730;DHT22;12832;52.392;13.066;2022-10-14T16:47:58;26.20;42.10
24730;DHT22;12832;52.392;13.066;2022-10-14T16:50:24;26.20;42.10
24730;DHT22;12832;52.392;13.066;2022-10-14T16:52:51;26.20;42.10
24730;DHT22;12832;52.392;13.066;2022-10-14T16:55:35;26.20;42.10
24730;DHT22;12832;52.392;13.066;2022-10-14T16:58:02;26.20;42.10
24730;DHT22;12832;52.392;13.066;2022-10-14T17:00:28;26.20;42.10
24730;DHT22;12832;52.392;13.066;2022-10-14T17:02:55;26.20;42.20
24730;DHT22;12832;52.392;13.066;2022-10-14T17:05:21;26.20;42.00
24730;DHT22;12832;52.392;13.066;2022-10-14T17:07:47;26.20;41.90
24730;DHT22;12832;52.392;13.066;2022-10-14T17:10:13;26.30;41.80
24730;DHT22;12832;52.392;13.066;2022-10-14T17:12:39;26.30;41.70
24730;DHT22;12832;52.392;13.066;2022-10-14T17:15:07;26.30;41.60
24730;DHT22;12832;52.392;13.066;2022-10-14T17:17:34;26.30;41.50
24730;DHT22;12832;52.392;13.066;2022-10-14T17:20:00;26.40;41.50
24730;DHT22;12832;52.392;13.066;2022-10-14T17:22:26;26.40;41.50
24730;DHT22;12832;52.392;13.066;2022-10-14T17:24:53;26.40;41.40
24730;DHT22;12832;52.392;13.066;2022-10-14T17:27:20;26.40;41.30
24730;DHT22;12832;52.392;13.066;2022-10-14T17:29:49;26.40;41.20